createdAt,value
2017-11-11T00:02:09.143Z,85.09
2017-11-11T00:04:36.552Z,85.02
2017-11-11T00:07:03.939Z,84.75
2017-11-11T00:09:31.358Z,84.74
2017-11-11T00:11:58.734Z,84.79
2017-11-11T00:14:26.148Z,84.79
2017-11-11T00:16:53.532Z,84.97
2017-11-11T00:19:20.924Z,85.11
2017-11-11T00:21:48.319Z,85.63
2017-11-11T00:24:15.733Z,85.44
2017-11-11T00:26:43.115Z,85.52
2017-11-11T00:29:10.513Z,85.46
2017-11-11T00:31:37.911Z,85.74
2017-11-11T00:34:05.302Z,85.54
2017-11-11T00:36:32.692Z,85.40
2017-11-11T00:39:00.088Z,85.41
2017-11-11T00:41:27.478Z,85.66
2017-11-11T00:43:54.895Z,85.52
2017-11-11T00:46:22.305Z,85.74
2017-11-11T00:48:49.690Z,85.43
2017-11-11T00:51:17.082Z,85.41
2017-11-11T00:53:44.476Z,85.52
2017-11-11T00:56:11.880Z,85.43
2017-11-11T00:58:39.274Z,85.52
2017-11-11T01:01:06.668Z,85.66
2017-11-11T01:03:34.078Z,85.78
2017-11-11T01:06:01.479Z,85.37
2017-11-11T01:08:28.880Z,85.24
2017-11-11T01:10:56.271Z,85.21
2017-11-11T01:13:23.671Z,84.89
2017-11-11T01:15:51.068Z,84.80
2017-11-11T01:18:18.484Z,85.18
2017-11-11T01:20:45.872Z,85.16
2017-11-11T01:23:13.280Z,85.04
2017-11-11T01:25:40.676Z,85.31
2017-11-11T01:28:08.067Z,85.28
2017-11-11T01:30:35.472Z,85.38
2017-11-11T01:33:02.876Z,85.52
2017-11-11T01:35:30.279Z,85.60
2017-11-11T01:37:57.703Z,85.56
2017-11-11T01:40:25.093Z,85.40
2017-11-11T01:42:52.488Z,85.41
2017-11-11T01:45:19.887Z,85.44
2017-11-11T01:47:47.287Z,85.69
2017-11-11T01:50:14.679Z,86.08
2017-11-11T01:52:42.083Z,86.25
2017-11-11T01:55:09.482Z,86.16
2017-11-11T01:57:36.876Z,86.17
2017-11-11T02:00:04.275Z,86.32
2017-11-11T02:02:31.663Z,86.41
2017-11-11T02:04:59.061Z,86.71
2017-11-11T02:07:26.448Z,86.49
2017-11-11T02:09:53.847Z,86.60
2017-11-11T02:12:21.246Z,86.46
2017-11-11T02:14:48.643Z,86.73
2017-11-11T02:17:16.043Z,86.55
2017-11-11T02:19:43.435Z,86.59
2017-11-11T02:22:10.835Z,86.83
2017-11-11T02:24:38.229Z,86.56
2017-11-11T02:27:05.624Z,86.45
2017-11-11T02:29:33.011Z,86.42
2017-11-11T02:32:00.413Z,86.82
2017-11-11T02:34:27.799Z,86.58
2017-11-11T02:36:55.187Z,86.66
2017-11-11T02:39:22.575Z,86.52
2017-11-11T02:41:49.973Z,86.33
2017-11-11T02:44:17.364Z,86.40
2017-11-11T02:46:44.751Z,86.58
2017-11-11T02:49:12.155Z,86.70
2017-11-11T02:51:39.549Z,86.49
2017-11-11T02:54:06.936Z,86.31
2017-11-11T02:56:34.333Z,86.12
2017-11-11T02:59:01.733Z,85.84
2017-11-11T03:01:29.131Z,85.87
2017-11-11T03:03:56.523Z,85.72
2017-11-11T03:06:23.923Z,85.22
2017-11-11T03:08:51.313Z,85.38
2017-11-11T03:11:18.705Z,85.08
2017-11-11T03:13:46.116Z,84.67
2017-11-11T03:16:13.487Z,84.77
2017-11-11T03:18:40.883Z,84.53
2017-11-11T03:21:08.276Z,84.44
2017-11-11T03:23:35.679Z,84.24
2017-11-11T03:26:03.068Z,84.36
2017-11-11T03:28:30.462Z,84.32
2017-11-11T03:30:57.856Z,84.23
2017-11-11T03:33:25.244Z,84.38
2017-11-11T03:35:52.636Z,84.28
2017-11-11T03:38:20.040Z,84.69
2017-11-11T03:40:47.432Z,84.46
2017-11-11T03:43:14.828Z,84.38
2017-11-11T03:45:42.221Z,83.81
2017-11-11T03:48:09.629Z,83.39
2017-11-11T03:50:37.025Z,83.52
2017-11-11T03:53:04.411Z,83.23
2017-11-11T03:55:31.805Z,83.08
2017-11-11T03:57:59.205Z,83.27
2017-11-11T04:00:26.619Z,83.26
2017-11-11T04:02:54.003Z,83.26
2017-11-11T04:05:21.402Z,82.86
2017-11-11T04:07:48.791Z,82.50
2017-11-11T04:10:16.191Z,82.12
2017-11-11T04:12:43.576Z,82.29
2017-11-11T04:15:10.976Z,81.91
2017-11-11T04:17:38.367Z,81.69
2017-11-11T04:20:05.758Z,81.61
2017-11-11T04:22:33.171Z,81.41
2017-11-11T04:25:00.571Z,81.30
2017-11-11T04:27:27.971Z,81.16
2017-11-11T04:29:55.349Z,81.14
2017-11-11T04:32:22.767Z,80.88
2017-11-11T04:34:50.151Z,80.97
2017-11-11T04:37:17.569Z,80.68
2017-11-11T04:39:44.959Z,80.39
2017-11-11T04:42:12.346Z,80.48
2017-11-11T04:44:39.748Z,80.32
2017-11-11T04:47:07.148Z,80.60
2017-11-11T04:49:34.548Z,80.23
2017-11-11T04:52:01.936Z,80.32
2017-11-11T04:54:29.332Z,80.41
2017-11-11T04:56:56.732Z,80.06
2017-11-11T04:59:24.133Z,80.49
2017-11-11T05:01:51.536Z,80.19
2017-11-11T05:04:18.927Z,80.34
2017-11-11T05:06:46.313Z,80.38
2017-11-11T05:09:13.703Z,80.66
2017-11-11T05:11:41.099Z,80.49
2017-11-11T05:14:08.498Z,80.58
2017-11-11T05:16:35.891Z,80.67
2017-11-11T05:19:03.291Z,79.95
2017-11-11T05:21:30.694Z,80.27
2017-11-11T05:23:58.081Z,79.79
2017-11-11T05:26:25.468Z,78.99
2017-11-11T05:28:52.855Z,79.41
2017-11-11T05:31:20.259Z,79.24
2017-11-11T05:33:47.651Z,79.63
2017-11-11T05:36:15.040Z,79.60
2017-11-11T05:38:42.434Z,79.63
2017-11-11T05:41:09.830Z,78.92
2017-11-11T05:43:37.241Z,78.92
2017-11-11T05:46:04.618Z,79.00
2017-11-11T05:48:32.021Z,79.12
2017-11-11T05:50:59.412Z,78.97
2017-11-11T05:53:26.799Z,78.97
2017-11-11T05:55:54.191Z,80.31
2017-11-11T05:58:21.592Z,80.28
2017-11-11T06:00:48.987Z,80.46
2017-11-11T06:03:16.383Z,80.26
2017-11-11T06:05:43.788Z,80.30
2017-11-11T06:08:11.175Z,80.42
2017-11-11T06:10:38.575Z,80.33
2017-11-11T06:13:06.001Z,79.44
2017-11-11T06:15:33.392Z,79.71
2017-11-11T06:18:00.792Z,79.35
2017-11-11T06:20:28.191Z,79.07
2017-11-11T06:22:55.918Z,78.63
2017-11-11T06:25:23.311Z,78.54
2017-11-11T06:27:50.700Z,78.47
2017-11-11T06:30:18.099Z,78.46
2017-11-11T06:32:45.487Z,78.17
2017-11-11T06:35:12.874Z,78.90
2017-11-11T06:37:40.267Z,78.57
2017-11-11T06:40:07.706Z,78.18
2017-11-11T06:42:35.082Z,77.64
2017-11-11T06:45:02.467Z,78.02
2017-11-11T06:47:29.867Z,77.96
2017-11-11T06:49:57.247Z,77.77
2017-11-11T06:52:24.659Z,77.44
2017-11-11T06:54:52.039Z,77.58
2017-11-11T06:57:19.445Z,77.05
2017-11-11T06:59:46.839Z,77.51
2017-11-11T07:02:14.235Z,77.40
2017-11-11T07:04:41.616Z,77.78
2017-11-11T07:07:08.996Z,78.11
2017-11-11T07:09:36.410Z,77.71
2017-11-11T07:12:03.798Z,77.37
2017-11-11T07:14:31.190Z,77.63
2017-11-11T07:16:58.578Z,76.77
2017-11-11T07:19:25.967Z,77.64
2017-11-11T07:21:53.352Z,77.12
2017-11-11T07:24:20.733Z,76.95
2017-11-11T07:26:48.115Z,76.56
2017-11-11T07:29:15.516Z,76.44
2017-11-11T07:31:42.961Z,76.56
2017-11-11T07:34:10.344Z,76.25
2017-11-11T07:36:37.744Z,76.29
2017-11-11T07:39:05.153Z,76.24
2017-11-11T07:41:32.544Z,75.79
2017-11-11T07:43:59.946Z,75.78
2017-11-11T07:46:27.336Z,75.50
2017-11-11T07:48:54.733Z,76.42
2017-11-11T07:51:22.112Z,75.56
2017-11-11T07:53:49.511Z,75.95
2017-11-11T07:56:16.899Z,75.48
2017-11-11T07:58:44.309Z,75.31
2017-11-11T08:01:11.692Z,75.10
2017-11-11T08:03:39.075Z,74.57
2017-11-11T08:06:06.466Z,75.11
2017-11-11T08:08:33.848Z,75.07
2017-11-11T08:11:01.231Z,75.39
2017-11-11T08:13:28.612Z,75.18
2017-11-11T08:15:55.997Z,74.87
2017-11-11T08:18:23.381Z,74.76
2017-11-11T08:20:50.782Z,75.00
2017-11-11T08:23:18.151Z,75.47
2017-11-11T08:25:45.524Z,74.87
2017-11-11T08:28:12.922Z,76.62
2017-11-11T08:30:40.292Z,77.13
2017-11-11T08:33:07.671Z,78.13
2017-11-11T08:35:35.043Z,79.06
2017-11-11T08:38:02.434Z,79.83
2017-11-11T08:40:29.815Z,80.24
2017-11-11T08:42:57.235Z,80.66
2017-11-11T08:45:24.615Z,81.51
2017-11-11T08:47:51.995Z,82.47
2017-11-11T08:50:19.381Z,82.76
2017-11-11T08:52:46.760Z,82.03
2017-11-11T08:55:14.147Z,82.54
2017-11-11T08:57:41.520Z,83.29
2017-11-11T09:00:08.917Z,84.21
2017-11-11T09:02:36.292Z,84.62
2017-11-11T09:05:03.676Z,84.73
2017-11-11T09:07:31.068Z,85.34
2017-11-11T09:09:58.447Z,85.29
2017-11-11T09:12:25.836Z,85.92
2017-11-11T09:14:53.208Z,86.11
2017-11-11T09:17:20.607Z,86.57
2017-11-11T09:19:48.049Z,86.85
2017-11-11T09:22:15.412Z,87.25
2017-11-11T09:24:42.795Z,87.40
2017-11-11T09:27:10.186Z,87.65
2017-11-11T09:29:37.573Z,87.65
2017-11-11T09:32:04.967Z,87.14
2017-11-11T09:34:32.367Z,86.81
2017-11-11T09:36:59.763Z,86.85
2017-11-11T09:39:27.141Z,87.39
2017-11-11T09:41:54.568Z,87.71
2017-11-11T09:44:21.951Z,87.98
2017-11-11T09:46:49.350Z,88.14
2017-11-11T09:49:16.835Z,88.07
2017-11-11T09:51:44.224Z,88.12
2017-11-11T09:54:11.618Z,88.06
2017-11-11T09:56:39.024Z,88.09
2017-11-11T09:59:06.399Z,88.04
2017-11-11T10:01:33.779Z,88.04
2017-11-11T10:04:01.165Z,87.57
2017-11-11T10:06:28.544Z,87.78
2017-11-11T10:08:55.939Z,88.02
2017-11-11T10:11:23.323Z,86.81
2017-11-11T10:13:50.717Z,87.36
2017-11-11T10:16:19.059Z,87.66
2017-11-11T10:18:46.518Z,87.91
2017-11-11T10:21:13.989Z,87.84
2017-11-11T10:23:42.195Z,87.94
2017-11-11T10:26:22.912Z,88.06
2017-11-11T10:28:50.295Z,88.29
2017-11-11T10:31:17.678Z,88.15
2017-11-11T10:33:45.064Z,88.04
2017-11-11T10:36:12.447Z,87.87
2017-11-11T10:38:39.824Z,87.49
2017-11-11T10:41:07.220Z,88.02
2017-11-11T10:43:34.599Z,88.31
2017-11-11T10:46:01.983Z,88.76
2017-11-11T10:48:29.382Z,88.74
2017-11-11T10:50:56.760Z,88.08
2017-11-11T10:53:24.154Z,88.82
2017-11-11T10:55:51.541Z,89.08
2017-11-11T10:58:18.919Z,89.51
2017-11-11T11:00:46.307Z,89.42
2017-11-11T11:03:13.695Z,89.59
2017-11-11T11:05:41.083Z,89.43
2017-11-11T11:08:08.474Z,89.70
2017-11-11T11:10:35.869Z,89.36
2017-11-11T11:13:03.255Z,89.27
2017-11-11T11:15:30.643Z,89.49
2017-11-11T11:17:58.034Z,89.62
2017-11-11T11:20:25.423Z,89.74
2017-11-11T11:22:52.817Z,89.54
2017-11-11T11:25:20.204Z,89.85
2017-11-11T11:27:47.613Z,89.98
2017-11-11T11:30:14.995Z,90.04
2017-11-11T11:32:42.389Z,90.04
2017-11-11T11:35:09.775Z,89.83
2017-11-11T11:37:37.165Z,89.49
2017-11-11T11:40:04.637Z,89.63
2017-11-11T11:42:32.029Z,89.80
2017-11-11T11:44:59.423Z,89.33
2017-11-11T11:47:26.845Z,88.79
2017-11-11T11:49:54.232Z,89.16
2017-11-11T11:52:21.626Z,89.49
2017-11-11T11:54:49.026Z,89.84
2017-11-11T11:57:16.430Z,90.17
2017-11-11T11:59:43.812Z,90.47
2017-11-11T12:02:11.203Z,90.53
2017-11-11T12:04:38.600Z,90.41
2017-11-11T12:07:05.995Z,90.42
2017-11-11T12:09:33.395Z,90.33
2017-11-11T12:12:00.779Z,89.99
2017-11-11T12:14:28.180Z,90.20
2017-11-11T12:16:55.572Z,90.13
2017-11-11T12:19:22.965Z,90.26
2017-11-11T12:21:50.353Z,90.14
2017-11-11T12:24:17.738Z,90.38
2017-11-11T12:26:45.150Z,90.67
2017-11-11T12:29:12.532Z,90.78
2017-11-11T12:31:39.939Z,90.94
2017-11-11T12:34:07.332Z,90.78
2017-11-11T12:36:34.727Z,90.72
2017-11-11T12:39:02.139Z,91.01
2017-11-11T12:41:29.523Z,91.01
2017-11-11T12:43:56.920Z,90.59
2017-11-11T12:46:24.312Z,90.40
2017-11-11T12:48:51.708Z,90.39
2017-11-11T12:51:19.092Z,90.62
2017-11-11T12:53:46.491Z,90.65
2017-11-11T12:56:13.884Z,90.60
2017-11-11T12:58:41.267Z,90.76
2017-11-11T13:01:08.663Z,90.18
2017-11-11T13:03:36.043Z,90.19
2017-11-11T13:06:03.435Z,90.29
2017-11-11T13:08:30.823Z,90.14
2017-11-11T13:10:58.220Z,89.64
2017-11-11T13:13:25.607Z,89.88
2017-11-11T13:15:54.568Z,90.30
2017-11-11T13:18:21.953Z,90.64
2017-11-11T13:20:49.344Z,91.06
2017-11-11T13:23:16.732Z,91.06
2017-11-11T13:25:44.116Z,91.19
2017-11-11T13:28:11.511Z,91.33
2017-11-11T13:30:38.896Z,91.38
2017-11-11T13:33:06.288Z,91.37
2017-11-11T13:35:33.671Z,91.10
2017-11-11T13:38:01.420Z,91.51
2017-11-11T13:40:28.796Z,91.93
2017-11-11T13:42:56.185Z,91.99
2017-11-11T13:45:23.584Z,92.24
2017-11-11T13:47:50.972Z,92.29
2017-11-11T13:50:18.366Z,92.21
2017-11-11T13:52:45.747Z,93.34
2017-11-11T13:55:13.227Z,93.71
2017-11-11T13:57:40.610Z,93.77
2017-11-11T14:00:08.007Z,94.48
2017-11-11T14:02:35.447Z,94.87
2017-11-11T14:05:02.805Z,95.10
2017-11-11T14:07:30.199Z,95.16
2017-11-11T14:09:57.583Z,95.35
2017-11-11T14:12:24.976Z,95.33
2017-11-11T14:14:52.359Z,95.09
2017-11-11T14:17:19.772Z,95.00
2017-11-11T14:19:47.147Z,94.91
2017-11-11T14:22:14.562Z,94.71
2017-11-11T14:24:42.775Z,94.30
2017-11-11T14:27:10.576Z,94.25
2017-11-11T14:29:37.963Z,94.07
2017-11-11T14:32:05.359Z,94.04
2017-11-11T14:34:32.755Z,93.89
2017-11-11T14:37:00.419Z,93.85
2017-11-11T14:39:28.442Z,93.77
2017-11-11T14:41:55.881Z,93.45
2017-11-11T14:44:23.346Z,93.50
2017-11-11T14:46:50.732Z,93.77
2017-11-11T14:49:18.144Z,93.73
2017-11-11T14:51:45.552Z,93.71
2017-11-11T14:54:12.939Z,93.48
2017-11-11T14:56:40.334Z,93.12
2017-11-11T14:59:07.722Z,92.97
2017-11-11T15:01:35.122Z,93.14
2017-11-11T15:04:02.529Z,93.42
2017-11-11T15:06:29.919Z,93.77
2017-11-11T15:08:57.307Z,92.85
2017-11-11T15:11:24.698Z,93.70
2017-11-11T15:13:52.128Z,93.56
2017-11-11T15:16:19.517Z,93.07
2017-11-11T15:18:46.923Z,93.08
2017-11-11T15:21:14.305Z,93.19
2017-11-11T15:23:41.692Z,92.55
2017-11-11T15:26:09.079Z,92.90
2017-11-11T15:28:36.486Z,93.04
2017-11-11T15:31:04.196Z,92.88
2017-11-11T15:33:31.586Z,93.09
2017-11-11T15:35:58.980Z,93.19
2017-11-11T15:38:26.418Z,93.22
2017-11-11T15:40:53.830Z,93.47
2017-11-11T15:43:21.226Z,93.47
2017-11-11T15:45:48.632Z,92.98
2017-11-11T15:48:16.019Z,93.09
2017-11-11T15:50:43.399Z,93.21
2017-11-11T15:53:10.795Z,93.21
2017-11-11T15:55:38.182Z,93.24
2017-11-11T15:58:05.570Z,93.29
2017-11-11T16:00:32.959Z,92.76
2017-11-11T16:03:00.353Z,93.97
2017-11-11T16:05:27.839Z,94.94
2017-11-11T16:07:55.246Z,94.44
2017-11-11T16:10:22.635Z,93.75
2017-11-11T16:12:50.027Z,93.62
2017-11-11T16:15:17.414Z,93.76
2017-11-11T16:17:44.810Z,93.93
2017-11-11T16:20:12.208Z,93.63
2017-11-11T16:22:39.592Z,93.47
2017-11-11T16:25:06.991Z,93.46
2017-11-11T16:27:34.452Z,93.56
2017-11-11T16:30:01.847Z,93.28
2017-11-11T16:32:29.236Z,93.43
2017-11-11T16:34:56.618Z,93.51
2017-11-11T16:37:24.015Z,93.36
2017-11-11T16:39:51.491Z,93.39
2017-11-11T16:42:18.891Z,93.41
2017-11-11T16:44:46.271Z,93.44
2017-11-11T16:47:13.664Z,93.36
2017-11-11T16:49:41.056Z,93.17
2017-11-11T16:52:08.456Z,93.07
2017-11-11T16:54:35.853Z,93.20
2017-11-11T16:57:03.239Z,93.22
2017-11-11T16:59:30.623Z,93.21
2017-11-11T17:01:58.012Z,93.22
2017-11-11T17:04:25.411Z,92.93
2017-11-11T17:06:52.803Z,92.27
2017-11-11T17:09:21.011Z,92.48
2017-11-11T17:11:48.395Z,92.49
2017-11-11T17:14:15.774Z,92.35
2017-11-11T17:16:43.170Z,92.07
2017-11-11T17:19:10.555Z,92.28
2017-11-11T17:21:37.945Z,92.39
2017-11-11T17:24:05.340Z,92.61
2017-11-11T17:26:32.741Z,92.62
2017-11-11T17:29:00.136Z,92.83
2017-11-11T17:31:27.531Z,92.58
2017-11-11T17:33:54.924Z,92.70
2017-11-11T17:36:22.316Z,92.50
2017-11-11T17:38:49.708Z,92.43
2017-11-11T17:41:17.106Z,92.22
2017-11-11T17:43:44.520Z,92.49
2017-11-11T17:46:11.914Z,92.66
2017-11-11T17:48:39.291Z,92.40
2017-11-11T17:51:06.685Z,92.49
2017-11-11T17:53:34.068Z,92.91
2017-11-11T17:56:02.416Z,92.40
2017-11-11T17:58:29.801Z,92.81
2017-11-11T18:00:57.195Z,92.80
2017-11-11T18:03:24.610Z,92.83
2017-11-11T18:05:51.992Z,92.58
2017-11-11T18:08:19.398Z,92.57
2017-11-11T18:10:46.779Z,92.55
2017-11-11T18:13:14.204Z,92.74
2017-11-11T18:15:41.600Z,92.81
2017-11-11T18:18:08.979Z,92.75
2017-11-11T18:20:36.377Z,92.79
2017-11-11T18:23:03.768Z,93.06
2017-11-11T18:25:31.159Z,92.98
2017-11-11T18:27:58.556Z,92.95
2017-11-11T18:30:26.048Z,92.75
2017-11-11T18:32:53.439Z,92.74
2017-11-11T18:35:20.901Z,92.60
2017-11-11T18:37:48.292Z,92.55
2017-11-11T18:40:15.680Z,92.68
2017-11-11T18:42:43.080Z,92.91
2017-11-11T18:45:10.470Z,92.65
2017-11-11T18:47:37.864Z,92.24
2017-11-11T18:50:05.252Z,92.27
2017-11-11T18:52:32.644Z,92.38
2017-11-11T18:55:00.040Z,92.25
2017-11-11T18:57:27.435Z,92.13
2017-11-11T18:59:54.827Z,91.91
2017-11-11T19:02:22.217Z,91.70
2017-11-11T19:04:49.624Z,91.98
2017-11-11T19:07:17.006Z,92.18
2017-11-11T19:09:44.399Z,92.21
2017-11-11T19:12:11.831Z,92.23
2017-11-11T19:14:39.219Z,92.29
2017-11-11T19:17:06.623Z,92.00
2017-11-11T19:19:34.015Z,92.19
2017-11-11T19:22:01.403Z,91.86
2017-11-11T19:24:28.815Z,92.24
2017-11-11T19:26:56.211Z,91.94
2017-11-11T19:29:23.605Z,92.10
2017-11-11T19:31:50.999Z,92.05
2017-11-11T19:34:18.387Z,92.42
2017-11-11T19:36:45.787Z,92.40
2017-11-11T19:39:13.843Z,92.44
2017-11-11T19:41:41.241Z,92.49
2017-11-11T19:44:08.695Z,92.58
2017-11-11T19:46:36.089Z,92.75
2017-11-11T19:49:04.169Z,93.08
2017-11-11T19:51:31.576Z,93.27
2017-11-11T19:53:58.963Z,93.29
2017-11-11T19:56:27.091Z,93.56
2017-11-11T19:58:54.547Z,93.91
2017-11-11T20:01:21.942Z,94.35
2017-11-11T20:03:49.567Z,94.19
2017-11-11T20:06:18.103Z,94.37
2017-11-11T20:08:45.847Z,94.15
2017-11-11T20:11:14.012Z,94.17
2017-11-11T20:13:42.123Z,94.02
2017-11-11T20:16:10.381Z,94.39
2017-11-11T20:18:37.775Z,94.47
2017-11-11T20:21:05.178Z,94.14
2017-11-11T20:23:32.995Z,94.07
2017-11-11T20:26:00.400Z,93.91
2017-11-11T20:28:27.827Z,94.03
2017-11-11T20:30:55.227Z,94.04
2017-11-11T20:33:22.636Z,94.05
2017-11-11T20:35:50.830Z,94.27
2017-11-11T20:38:18.220Z,94.29
2017-11-11T20:40:45.625Z,94.05
2017-11-11T20:43:13.016Z,94.18
2017-11-11T20:45:40.401Z,94.33
2017-11-11T20:48:07.821Z,94.30
2017-11-11T20:50:35.199Z,94.44
2017-11-11T20:53:02.588Z,94.63
2017-11-11T20:55:30.076Z,94.83
2017-11-11T20:57:57.456Z,94.75
2017-11-11T21:00:24.852Z,94.72
2017-11-11T21:02:52.248Z,94.87
2017-11-11T21:05:19.665Z,94.75
2017-11-11T21:07:47.046Z,94.72
2017-11-11T21:10:15.304Z,94.73
2017-11-11T21:12:42.692Z,94.14
2017-11-11T21:15:10.079Z,94.06
2017-11-11T21:17:37.486Z,94.21
2017-11-11T21:20:04.870Z,94.31
2017-11-11T21:22:32.266Z,94.31
2017-11-11T21:24:59.663Z,94.54
2017-11-11T21:27:27.068Z,94.45
2017-11-11T21:29:54.460Z,94.65
2017-11-11T21:32:21.850Z,94.42
2017-11-11T21:34:49.252Z,94.42
2017-11-11T21:37:16.636Z,94.46
2017-11-11T21:39:44.028Z,94.54
2017-11-11T21:42:11.411Z,94.47
2017-11-11T21:44:38.799Z,94.29
2017-11-11T21:47:06.197Z,94.30
2017-11-11T21:49:33.579Z,94.28
2017-11-11T21:52:00.975Z,94.36
2017-11-11T21:54:28.367Z,94.42
2017-11-11T21:56:55.768Z,94.40
2017-11-11T21:59:23.160Z,94.26
2017-11-11T22:01:50.550Z,94.12
2017-11-11T22:04:17.944Z,94.12
2017-11-11T22:06:45.335Z,94.01
2017-11-11T22:09:12.718Z,93.94
2017-11-11T22:11:40.108Z,94.03
2017-11-11T22:14:07.529Z,94.00
2017-11-11T22:16:34.915Z,94.00
2017-11-11T22:19:02.319Z,93.95
2017-11-11T22:21:29.707Z,93.86
2017-11-11T22:23:57.099Z,94.00
2017-11-11T22:26:24.492Z,94.14
2017-11-11T22:28:51.888Z,94.24
2017-11-11T22:31:19.344Z,94.24
2017-11-11T22:33:46.730Z,94.30
2017-11-11T22:36:14.117Z,94.06
2017-11-11T22:38:41.512Z,93.92
2017-11-11T22:41:08.906Z,93.84
2017-11-11T22:43:36.287Z,93.75
2017-11-11T22:46:03.677Z,93.65
2017-11-11T22:48:31.076Z,93.55
2017-11-11T22:50:58.469Z,93.66
2017-11-11T22:53:25.855Z,93.65
2017-11-11T22:55:53.251Z,93.81
2017-11-11T22:58:20.639Z,93.91
2017-11-11T23:00:48.040Z,93.83
2017-11-11T23:03:15.428Z,93.65
2017-11-11T23:05:42.812Z,93.61
2017-11-11T23:08:10.202Z,93.61
2017-11-11T23:10:37.595Z,93.59
2017-11-11T23:13:05.004Z,93.42
2017-11-11T23:15:32.386Z,93.29
2017-11-11T23:17:59.771Z,93.23
2017-11-11T23:20:27.163Z,93.22
2017-11-11T23:22:54.557Z,93.35
2017-11-11T23:25:21.952Z,93.46
2017-11-11T23:27:49.334Z,93.52
2017-11-11T23:30:16.752Z,93.48
2017-11-11T23:32:44.135Z,93.51
2017-11-11T23:35:11.524Z,93.43
2017-11-11T23:37:38.921Z,93.52
2017-11-11T23:40:06.323Z,93.64
2017-11-11T23:42:33.703Z,93.52
2017-11-11T23:45:01.105Z,93.42
2017-11-11T23:47:28.494Z,93.12
2017-11-11T23:49:55.904Z,93.30
2017-11-11T23:52:23.267Z,93.42
2017-11-11T23:54:50.667Z,93.47
2017-11-11T23:57:18.044Z,93.49
2017-11-11T23:59:45.445Z,93.68
